Zillah, WA

2:20 PM PST on December 08, 2016 (GMT -0800)
Fire Station #9 | | Change Station
Active Advisory: Winter Weather Advisory

Elev 765 ft 46.38 °N, 120.32 °W | Updated 9 minutes ago

Overcast
Overcast
28.0 °F
Feels Like 28 °F
N
0.0
Wind Variable Wind from SE
Gusts 0.0 mph

Today
High -- | Low -- °F
--% Chance of Precip.
Yesterday
High -- | Low -- °F
Precip. -- in
Pressure 30.26 in
Visibility 10.0 miles
Clouds Overcast 7000 ft
Windchill 28 °F
Dew Point 14 °F
Humidity 56%
Rainfall 0.00 in
Snow Depth Not available.
7:32 AM 4:14 PM
Waxing Gibbous, 67% visible
METAR KYKM 082153Z 04008KT 10SM OVC070 M02/M12 A3021 RMK AO2 SLP245 T10171117
Pressure 30.26 in
Visibility 10.0 miles
Clouds Overcast 7000 ft
Windchill 28 °F
Dew Point 14 °F
Humidity 56%
Rainfall 0.00 in
Snow Depth Not available.
7:32 AM 4:14 PM
Waxing Gibbous, 67% visible
METAR KYKM 082153Z 04008KT 10SM OVC070 M02/M12 A3021 RMK AO2 SLP245 T10171117

10-Day Weather Forecast

Almanac

Astronomy

Dec. 08, 2016 Rise Set
Actual Time
Civil Twilight
Nautical Twilight
Astronomical Twilight
Moon
Length of Visible Light
Length of Day
Tomorrow will be .
, % of the Moon is Illuminated

Today's Extremes

State Highs State Lows

Community

WunderPhotos

Upload Photos

1,956,277 photos uploaded!

WunderBlog® & News

Nearby

Air Quality

  Air Quality AQ Index Pollutant
Not available.

Snow Depth

Station Depth Elevation

Earthquake Activity

City Distance Mag. Time & Date
Minimum magnitude displayed is 2.5.

Coastal Water Temperatures

Place Temperature

Stations

Nearby Weather Stations

Station Location Temp. Windchill Dew Point Humidity Wind Precip. Elev Updated Type
                   

Watches & Warnings

Winter Weather Advisory
Issued: 10:45 AM PST Dec. 8, 2016 – National Weather Service

... Winter Weather Advisory remains in effect until 1 am PST
Friday...

* snow accumulations... 2 to 5 inches.

* Ice accumulations... less than a tenth of an inch.

* Locations... Pendleton... Pilot Rock... Boardman... Hermiston...
Ione... Connell... Prosser... Tri-Cities... Dayton... Waitsburg...
Walla Walla... Ellensburg... Thorp... Naches... Sunnyside...
Toppenish... Yakima.

* Snow level... basin floor.

* Temperatures... in the lower to mid 20s.

* Timing... snow will develop by early this afternoon... increasing
by late afternoon... then diminishing late this evening. In
addition... a light wintry mix of snow... sleet and freezing rain
is expected tonight and Friday morning.

* Impacts... area roadways will be snow covered and slick.
Localized blowing snow will be possible.

* Winds... northeast 5 to 15 mph with gusts up to 25 mph.

* Web page: for a detailed view of the hazard area visit
http://www.Wrh.NOAA.Gov/map/?Wfo=pdt.

Precautionary/preparedness actions...

A Winter Weather Advisory for snow means that periods of snow
will cause primarily travel difficulties. Be prepared for snow
covered roads and limited visibilities... and use caution while
driving.